sensor_id;sensor_type;location;lat;lon;timestamp;temperature;humidity
15131;DHT22;7666;50.920;4.628;2024-01-25T00:02:27;9.40;99.90
15131;DHT22;7666;50.920;4.628;2024-01-25T00:05:13;9.40;99.90
15131;DHT22;7666;50.920;4.628;2024-01-25T00:07:59;9.40;99.90
15131;DHT22;7666;50.920;4.628;2024-01-25T00:10:45;9.40;99.90
15131;DHT22;7666;50.920;4.628;2024-01-25T00:13:31;9.40;99.90
15131;DHT22;7666;50.920;4.628;2024-01-25T00:16:17;9.30;99.90
15131;DHT22;7666;50.920;4.628;2024-01-25T00:19:03;9.30;99.90
15131;DHT22;7666;50.920;4.628;2024-01-25T00:21:49;9.20;99.90
15131;DHT22;7666;50.920;4.628;2024-01-25T00:24:35;9.20;99.90
15131;DHT22;7666;50.920;4.628;2024-01-25T00:27:22;9.20;99.90
15131;DHT22;7666;50.920;4.628;2024-01-25T00:30:08;9.20;99.90
15131;DHT22;7666;50.920;4.628;2024-01-25T00:32:55;9.10;99.90
15131;DHT22;7666;50.920;4.628;2024-01-25T00:35:42;9.10;99.90
15131;DHT22;7666;50.920;4.628;2024-01-25T00:38:28;9.00;99.90
15131;DHT22;7666;50.920;4.628;2024-01-25T00:41:17;9.00;99.90
15131;DHT22;7666;50.920;4.628;2024-01-25T00:44:04;8.90;99.90
15131;DHT22;7666;50.920;4.628;2024-01-25T00:46:51;8.90;99.90
15131;DHT22;7666;50.920;4.628;2024-01-25T00:49:39;8.80;99.90
15131;DHT22;7666;50.920;4.628;2024-01-25T00:52:25;8.80;99.90
15131;DHT22;7666;50.920;4.628;2024-01-25T00:55:12;8.80;99.90
15131;DHT22;7666;50.920;4.628;2024-01-25T00:57:58;8.70;99.90
15131;DHT22;7666;50.920;4.628;2024-01-25T01:00:45;8.70;99.90
15131;DHT22;7666;50.920;4.628;2024-01-25T01:03:32;8.70;99.90
15131;DHT22;7666;50.920;4.628;2024-01-25T01:06:19;8.60;99.90
15131;DHT22;7666;50.920;4.628;2024-01-25T01:09:06;8.60;99.90
15131;DHT22;7666;50.920;4.628;2024-01-25T01:11:52;8.60;99.90
15131;DHT22;7666;50.920;4.628;2024-01-25T01:14:38;8.50;99.90
15131;DHT22;7666;50.920;4.628;2024-01-25T01:17:24;8.50;99.90
15131;DHT22;7666;50.920;4.628;2024-01-25T01:20:10;8.50;99.90
15131;DHT22;7666;50.920;4.628;2024-01-25T01:22:56;8.50;99.90
15131;DHT22;7666;50.920;4.628;2024-01-25T01:25:42;8.40;99.90
15131;DHT22;7666;50.920;4.628;2024-01-25T01:28:28;8.40;99.90
15131;DHT22;7666;50.920;4.628;2024-01-25T01:31:14;8.30;99.90
15131;DHT22;7666;50.920;4.628;2024-01-25T01:34:00;8.30;99.90
15131;DHT22;7666;50.920;4.628;2024-01-25T01:36:46;8.30;99.90
15131;DHT22;7666;50.920;4.628;2024-01-25T01:39:32;8.20;99.90
15131;DHT22;7666;50.920;4.628;2024-01-25T01:42:18;8.20;99.90
15131;DHT22;7666;50.920;4.628;2024-01-25T01:45:04;8.20;99.90
15131;DHT22;7666;50.920;4.628;2024-01-25T01:47:50;8.20;99.90
15131;DHT22;7666;50.920;4.628;2024-01-25T01:50:36;8.10;99.90
15131;DHT22;7666;50.920;4.628;2024-01-25T01:53:23;8.10;99.90
15131;DHT22;7666;50.920;4.628;2024-01-25T01:56:09;8.00;99.90
15131;DHT22;7666;50.920;4.628;2024-01-25T01:59:08;8.00;99.90
15131;DHT22;7666;50.920;4.628;2024-01-25T02:01:55;8.00;99.90
15131;DHT22;7666;50.920;4.628;2024-01-25T02:04:41;8.00;99.90
15131;DHT22;7666;50.920;4.628;2024-01-25T02:07:28;8.00;99.90
15131;DHT22;7666;50.920;4.628;2024-01-25T02:10:16;8.00;99.90
15131;DHT22;7666;50.920;4.628;2024-01-25T02:13:02;7.90;99.90
15131;DHT22;7666;50.920;4.628;2024-01-25T02:15:48;7.90;99.90
15131;DHT22;7666;50.920;4.628;2024-01-25T02:18:34;8.00;99.90
15131;DHT22;7666;50.920;4.628;2024-01-25T02:21:20;7.90;99.90
15131;DHT22;7666;50.920;4.628;2024-01-25T02:24:06;7.90;99.90
15131;DHT22;7666;50.920;4.628;2024-01-25T02:26:52;7.80;99.90
15131;DHT22;7666;50.920;4.628;2024-01-25T02:29:38;7.80;99.90
15131;DHT22;7666;50.920;4.628;2024-01-25T02:32:24;7.80;99.90
15131;DHT22;7666;50.920;4.628;2024-01-25T02:35:10;7.80;99.90
15131;DHT22;7666;50.920;4.628;2024-01-25T02:37:56;7.80;99.90
15131;DHT22;7666;50.920;4.628;2024-01-25T02:40:42;7.70;99.90
15131;DHT22;7666;50.920;4.628;2024-01-25T02:43:28;7.70;99.90
15131;DHT22;7666;50.920;4.628;2024-01-25T02:46:14;7.70;99.90
15131;DHT22;7666;50.920;4.628;2024-01-25T02:49:00;7.70;99.90
15131;DHT22;7666;50.920;4.628;2024-01-25T02:51:46;7.60;99.90
15131;DHT22;7666;50.920;4.628;2024-01-25T02:54:34;7.60;99.90
15131;DHT22;7666;50.920;4.628;2024-01-25T02:57:22;7.60;99.90
15131;DHT22;7666;50.920;4.628;2024-01-25T03:00:08;7.50;99.90
15131;DHT22;7666;50.920;4.628;2024-01-25T03:02:55;7.50;99.90
15131;DHT22;7666;50.920;4.628;2024-01-25T03:05:40;7.40;99.90
15131;DHT22;7666;50.920;4.628;2024-01-25T03:08:26;7.40;99.90
15131;DHT22;7666;50.920;4.628;2024-01-25T03:11:12;7.40;99.90
15131;DHT22;7666;50.920;4.628;2024-01-25T03:13:58;7.40;99.90
15131;DHT22;7666;50.920;4.628;2024-01-25T03:16:45;7.40;99.90
15131;DHT22;7666;50.920;4.628;2024-01-25T03:19:31;7.40;99.90
15131;DHT22;7666;50.920;4.628;2024-01-25T03:22:17;7.30;99.90
15131;DHT22;7666;50.920;4.628;2024-01-25T03:25:03;7.40;99.90
15131;DHT22;7666;50.920;4.628;2024-01-25T03:27:49;7.30;99.90
15131;DHT22;7666;50.920;4.628;2024-01-25T03:30:35;7.30;99.90
15131;DHT22;7666;50.920;4.628;2024-01-25T03:33:21;7.30;99.90
15131;DHT22;7666;50.920;4.628;2024-01-25T03:36:07;7.30;99.90
15131;DHT22;7666;50.920;4.628;2024-01-25T03:38:53;7.30;99.90
15131;DHT22;7666;50.920;4.628;2024-01-25T03:41:39;7.20;99.90
15131;DHT22;7666;50.920;4.628;2024-01-25T03:44:25;7.20;99.90
15131;DHT22;7666;50.920;4.628;2024-01-25T03:47:11;7.20;99.90
15131;DHT22;7666;50.920;4.628;2024-01-25T03:49:57;7.20;99.90
15131;DHT22;7666;50.920;4.628;2024-01-25T03:52:43;7.20;99.90
15131;DHT22;7666;50.920;4.628;2024-01-25T03:55:29;7.20;99.90
15131;DHT22;7666;50.920;4.628;2024-01-25T03:58:18;7.10;99.90
15131;DHT22;7666;50.920;4.628;2024-01-25T04:01:04;7.10;99.90
15131;DHT22;7666;50.920;4.628;2024-01-25T04:03:51;7.00;99.90
15131;DHT22;7666;50.920;4.628;2024-01-25T04:06:44;7.00;99.90
15131;DHT22;7666;50.920;4.628;2024-01-25T04:09:31;7.00;99.90
15131;DHT22;7666;50.920;4.628;2024-01-25T04:12:17;7.00;99.90
15131;DHT22;7666;50.920;4.628;2024-01-25T04:15:03;7.00;99.90
15131;DHT22;7666;50.920;4.628;2024-01-25T04:17:49;6.90;99.90
15131;DHT22;7666;50.920;4.628;2024-01-25T04:20:35;6.90;99.90
15131;DHT22;7666;50.920;4.628;2024-01-25T04:23:22;6.90;99.90
15131;DHT22;7666;50.920;4.628;2024-01-25T04:26:08;6.80;99.90
15131;DHT22;7666;50.920;4.628;2024-01-25T04:28:54;6.80;99.90
15131;DHT22;7666;50.920;4.628;2024-01-25T04:31:44;6.70;99.90
15131;DHT22;7666;50.920;4.628;2024-01-25T04:34:30;6.70;99.90
15131;DHT22;7666;50.920;4.628;2024-01-25T04:37:16;6.60;99.90
15131;DHT22;7666;50.920;4.628;2024-01-25T04:40:03;6.60;99.90
15131;DHT22;7666;50.920;4.628;2024-01-25T04:42:49;6.50;99.90
15131;DHT22;7666;50.920;4.628;2024-01-25T04:45:35;6.50;99.90
15131;DHT22;7666;50.920;4.628;2024-01-25T04:48:21;6.40;99.90
15131;DHT22;7666;50.920;4.628;2024-01-25T04:51:06;6.40;99.90
15131;DHT22;7666;50.920;4.628;2024-01-25T04:53:52;6.40;99.90
15131;DHT22;7666;50.920;4.628;2024-01-25T04:56:38;6.40;99.90
15131;DHT22;7666;50.920;4.628;2024-01-25T04:59:24;6.40;99.90
15131;DHT22;7666;50.920;4.628;2024-01-25T05:02:11;6.40;99.90
15131;DHT22;7666;50.920;4.628;2024-01-25T05:04:57;6.40;99.90
15131;DHT22;7666;50.920;4.628;2024-01-25T05:07:43;6.40;99.90
15131;DHT22;7666;50.920;4.628;2024-01-25T05:10:28;6.40;99.90
15131;DHT22;7666;50.920;4.628;2024-01-25T05:13:15;6.50;99.90
15131;DHT22;7666;50.920;4.628;2024-01-25T05:16:01;6.50;99.90
15131;DHT22;7666;50.920;4.628;2024-01-25T05:18:47;6.40;99.90
15131;DHT22;7666;50.920;4.628;2024-01-25T05:21:32;6.30;99.90
15131;DHT22;7666;50.920;4.628;2024-01-25T05:24:18;6.30;99.90
15131;DHT22;7666;50.920;4.628;2024-01-25T05:27:05;6.20;99.90
15131;DHT22;7666;50.920;4.628;2024-01-25T05:29:51;6.20;99.90
15131;DHT22;7666;50.920;4.628;2024-01-25T05:32:37;6.20;99.90
15131;DHT22;7666;50.920;4.628;2024-01-25T05:35:23;6.20;99.90
15131;DHT22;7666;50.920;4.628;2024-01-25T05:38:11;6.20;99.90
15131;DHT22;7666;50.920;4.628;2024-01-25T05:40:58;6.20;99.90
15131;DHT22;7666;50.920;4.628;2024-01-25T05:43:44;6.20;99.90
15131;DHT22;7666;50.920;4.628;2024-01-25T05:46:30;6.20;99.90
15131;DHT22;7666;50.920;4.628;2024-01-25T05:49:16;6.20;99.90
15131;DHT22;7666;50.920;4.628;2024-01-25T05:52:02;6.20;99.90
15131;DHT22;7666;50.920;4.628;2024-01-25T05:54:48;6.20;99.90
15131;DHT22;7666;50.920;4.628;2024-01-25T05:57:36;6.10;99.90
15131;DHT22;7666;50.920;4.628;2024-01-25T06:00:22;6.20;99.90
15131;DHT22;7666;50.920;4.628;2024-01-25T06:03:08;6.20;99.90
15131;DHT22;7666;50.920;4.628;2024-01-25T06:05:54;6.20;99.90
15131;DHT22;7666;50.920;4.628;2024-01-25T06:08:40;6.20;99.90
15131;DHT22;7666;50.920;4.628;2024-01-25T06:11:26;6.10;99.90
15131;DHT22;7666;50.920;4.628;2024-01-25T06:14:12;6.10;99.90
15131;DHT22;7666;50.920;4.628;2024-01-25T06:16:58;6.10;99.90
15131;DHT22;7666;50.920;4.628;2024-01-25T06:19:44;6.20;99.90
15131;DHT22;7666;50.920;4.628;2024-01-25T06:22:30;6.20;99.90
15131;DHT22;7666;50.920;4.628;2024-01-25T06:25:16;6.10;99.90
15131;DHT22;7666;50.920;4.628;2024-01-25T06:28:02;6.20;99.90
15131;DHT22;7666;50.920;4.628;2024-01-25T06:30:49;6.20;99.90
15131;DHT22;7666;50.920;4.628;2024-01-25T06:33:35;6.20;99.90
15131;DHT22;7666;50.920;4.628;2024-01-25T06:36:22;6.20;99.90
15131;DHT22;7666;50.920;4.628;2024-01-25T06:39:08;6.20;99.90
15131;DHT22;7666;50.920;4.628;2024-01-25T06:41:54;6.20;99.90
15131;DHT22;7666;50.920;4.628;2024-01-25T06:44:40;6.20;99.90
15131;DHT22;7666;50.920;4.628;2024-01-25T06:47:26;6.10;99.90
15131;DHT22;7666;50.920;4.628;2024-01-25T06:50:12;6.10;99.90
15131;DHT22;7666;50.920;4.628;2024-01-25T06:52:58;6.10;99.90
15131;DHT22;7666;50.920;4.628;2024-01-25T06:55:44;6.10;99.90
15131;DHT22;7666;50.920;4.628;2024-01-25T06:58:30;6.10;99.90
15131;DHT22;7666;50.920;4.628;2024-01-25T07:01:23;6.10;99.90
15131;DHT22;7666;50.920;4.628;2024-01-25T07:04:09;6.10;99.90
15131;DHT22;7666;50.920;4.628;2024-01-25T07:06:55;6.10;99.90
15131;DHT22;7666;50.920;4.628;2024-01-25T07:09:41;6.10;99.90
15131;DHT22;7666;50.920;4.628;2024-01-25T07:12:27;6.10;99.90
15131;DHT22;7666;50.920;4.628;2024-01-25T07:15:13;6.10;99.90
15131;DHT22;7666;50.920;4.628;2024-01-25T07:17:59;6.10;99.90
15131;DHT22;7666;50.920;4.628;2024-01-25T07:20:45;6.20;99.90
15131;DHT22;7666;50.920;4.628;2024-01-25T07:23:32;6.20;99.90
15131;DHT22;7666;50.920;4.628;2024-01-25T07:26:18;6.20;99.90
15131;DHT22;7666;50.920;4.628;2024-01-25T07:29:04;6.10;99.90
15131;DHT22;7666;50.920;4.628;2024-01-25T07:31:50;6.00;99.90
15131;DHT22;7666;50.920;4.628;2024-01-25T07:34:36;6.00;99.90
15131;DHT22;7666;50.920;4.628;2024-01-25T07:37:22;6.00;99.90
15131;DHT22;7666;50.920;4.628;2024-01-25T07:40:09;6.00;99.90
15131;DHT22;7666;50.920;4.628;2024-01-25T07:42:55;5.90;99.90
15131;DHT22;7666;50.920;4.628;2024-01-25T07:45:41;5.90;99.90
15131;DHT22;7666;50.920;4.628;2024-01-25T07:48:27;5.70;99.90
15131;DHT22;7666;50.920;4.628;2024-01-25T07:51:13;5.60;99.90
15131;DHT22;7666;50.920;4.628;2024-01-25T07:53:59;5.50;99.90
15131;DHT22;7666;50.920;4.628;2024-01-25T07:56:45;5.50;99.90
15131;DHT22;7666;50.920;4.628;2024-01-25T07:59:31;5.60;99.90
15131;DHT22;7666;50.920;4.628;2024-01-25T08:02:17;5.70;99.90
15131;DHT22;7666;50.920;4.628;2024-01-25T08:05:03;5.90;99.90
15131;DHT22;7666;50.920;4.628;2024-01-25T08:07:49;5.90;99.90
15131;DHT22;7666;50.920;4.628;2024-01-25T08:10:35;5.90;99.90
15131;DHT22;7666;50.920;4.628;2024-01-25T08:13:21;6.00;99.90
15131;DHT22;7666;50.920;4.628;2024-01-25T08:16:11;6.00;99.90
15131;DHT22;7666;50.920;4.628;2024-01-25T08:18:58;6.30;99.90
15131;DHT22;7666;50.920;4.628;2024-01-25T08:21:44;6.10;99.90
15131;DHT22;7666;50.920;4.628;2024-01-25T08:24:31;6.20;99.90
15131;DHT22;7666;50.920;4.628;2024-01-25T08:27:17;6.30;99.90
15131;DHT22;7666;50.920;4.628;2024-01-25T08:30:04;6.30;99.90
15131;DHT22;7666;50.920;4.628;2024-01-25T08:32:50;6.30;99.90
15131;DHT22;7666;50.920;4.628;2024-01-25T08:35:37;6.40;99.90
15131;DHT22;7666;50.920;4.628;2024-01-25T08:38:23;6.50;99.90
15131;DHT22;7666;50.920;4.628;2024-01-25T08:41:09;6.50;99.90
15131;DHT22;7666;50.920;4.628;2024-01-25T08:43:56;6.50;99.90
15131;DHT22;7666;50.920;4.628;2024-01-25T08:46:42;6.60;99.90
15131;DHT22;7666;50.920;4.628;2024-01-25T08:49:29;6.70;99.90
15131;DHT22;7666;50.920;4.628;2024-01-25T08:52:15;6.80;99.90
15131;DHT22;7666;50.920;4.628;2024-01-25T08:55:01;6.80;99.90
15131;DHT22;7666;50.920;4.628;2024-01-25T08:57:48;6.80;99.90
15131;DHT22;7666;50.920;4.628;2024-01-25T09:00:34;6.80;99.90
15131;DHT22;7666;50.920;4.628;2024-01-25T09:03:20;6.80;99.90
15131;DHT22;7666;50.920;4.628;2024-01-25T09:06:06;6.80;99.90
15131;DHT22;7666;50.920;4.628;2024-01-25T09:08:52;6.80;99.90
15131;DHT22;7666;50.920;4.628;2024-01-25T09:11:38;6.80;99.90
15131;DHT22;7666;50.920;4.628;2024-01-25T09:14:24;6.90;99.90
15131;DHT22;7666;50.920;4.628;2024-01-25T09:17:10;7.00;99.90
15131;DHT22;7666;50.920;4.628;2024-01-25T09:19:56;7.00;99.90
15131;DHT22;7666;50.920;4.628;2024-01-25T09:22:44;7.10;99.90
15131;DHT22;7666;50.920;4.628;2024-01-25T09:25:30;7.10;99.90
15131;DHT22;7666;50.920;4.628;2024-01-25T09:28:17;7.10;99.90
15131;DHT22;7666;50.920;4.628;2024-01-25T09:31:03;7.10;99.90
15131;DHT22;7666;50.920;4.628;2024-01-25T09:33:49;7.20;99.90
15131;DHT22;7666;50.920;4.628;2024-01-25T09:36:35;7.20;99.90
15131;DHT22;7666;50.920;4.628;2024-01-25T09:39:21;7.30;99.90
15131;DHT22;7666;50.920;4.628;2024-01-25T09:42:07;7.40;99.90
15131;DHT22;7666;50.920;4.628;2024-01-25T09:44:54;7.40;99.90
15131;DHT22;7666;50.920;4.628;2024-01-25T09:47:40;7.40;99.90
15131;DHT22;7666;50.920;4.628;2024-01-25T09:50:26;7.40;99.90
15131;DHT22;7666;50.920;4.628;2024-01-25T09:53:17;7.40;99.90
15131;DHT22;7666;50.920;4.628;2024-01-25T09:56:08;7.40;99.90
15131;DHT22;7666;50.920;4.628;2024-01-25T09:58:55;7.40;99.90
15131;DHT22;7666;50.920;4.628;2024-01-25T10:01:41;7.40;99.90
15131;DHT22;7666;50.920;4.628;2024-01-25T10:04:27;7.50;99.90
15131;DHT22;7666;50.920;4.628;2024-01-25T10:07:13;7.50;99.90
15131;DHT22;7666;50.920;4.628;2024-01-25T10:09:59;7.60;99.90
15131;DHT22;7666;50.920;4.628;2024-01-25T10:12:45;7.60;99.90
15131;DHT22;7666;50.920;4.628;2024-01-25T10:15:31;7.60;99.90
15131;DHT22;7666;50.920;4.628;2024-01-25T10:18:17;7.60;99.90
15131;DHT22;7666;50.920;4.628;2024-01-25T10:21:03;7.60;99.90
15131;DHT22;7666;50.920;4.628;2024-01-25T10:23:49;7.60;99.90
15131;DHT22;7666;50.920;4.628;2024-01-25T10:26:37;7.60;99.90
15131;DHT22;7666;50.920;4.628;2024-01-25T10:29:26;7.70;99.90
15131;DHT22;7666;50.920;4.628;2024-01-25T10:32:12;7.60;99.90
15131;DHT22;7666;50.920;4.628;2024-01-25T10:34:58;7.70;99.90
15131;DHT22;7666;50.920;4.628;2024-01-25T10:37:45;7.70;99.90
15131;DHT22;7666;50.920;4.628;2024-01-25T10:40:31;7.80;99.90
15131;DHT22;7666;50.920;4.628;2024-01-25T10:43:17;7.80;99.90
15131;DHT22;7666;50.920;4.628;2024-01-25T10:46:04;7.90;99.90
15131;DHT22;7666;50.920;4.628;2024-01-25T10:48:51;7.90;99.90
15131;DHT22;7666;50.920;4.628;2024-01-25T10:51:38;7.90;99.90
15131;DHT22;7666;50.920;4.628;2024-01-25T10:54:25;7.90;99.90
15131;DHT22;7666;50.920;4.628;2024-01-25T10:57:11;7.90;99.90
15131;DHT22;7666;50.920;4.628;2024-01-25T10:59:57;8.00;99.90
15131;DHT22;7666;50.920;4.628;2024-01-25T11:02:45;8.00;99.90
15131;DHT22;7666;50.920;4.628;2024-01-25T11:05:32;8.10;99.90
15131;DHT22;7666;50.920;4.628;2024-01-25T11:08:21;8.20;99.90
15131;DHT22;7666;50.920;4.628;2024-01-25T11:11:08;8.20;99.90
15131;DHT22;7666;50.920;4.628;2024-01-25T11:13:56;8.20;99.90
15131;DHT22;7666;50.920;4.628;2024-01-25T11:16:43;8.30;99.90
15131;DHT22;7666;50.920;4.628;2024-01-25T11:19:33;8.30;99.90
15131;DHT22;7666;50.920;4.628;2024-01-25T11:22:19;8.40;99.90
15131;DHT22;7666;50.920;4.628;2024-01-25T11:25:21;8.30;99.90
15131;DHT22;7666;50.920;4.628;2024-01-25T11:28:07;8.40;99.90
15131;DHT22;7666;50.920;4.628;2024-01-25T11:30:54;8.40;99.90
15131;DHT22;7666;50.920;4.628;2024-01-25T11:33:40;8.50;99.90
15131;DHT22;7666;50.920;4.628;2024-01-25T11:36:27;8.60;99.90
15131;DHT22;7666;50.920;4.628;2024-01-25T11:39:15;8.60;99.90
15131;DHT22;7666;50.920;4.628;2024-01-25T11:42:01;8.70;99.90
15131;DHT22;7666;50.920;4.628;2024-01-25T11:44:47;8.80;99.90
15131;DHT22;7666;50.920;4.628;2024-01-25T11:47:33;8.80;99.90
15131;DHT22;7666;50.920;4.628;2024-01-25T11:50:19;8.80;99.90
15131;DHT22;7666;50.920;4.628;2024-01-25T11:53:07;8.90;99.90
15131;DHT22;7666;50.920;4.628;2024-01-25T11:55:55;8.90;99.90
15131;DHT22;7666;50.920;4.628;2024-01-25T11:58:43;9.00;99.90
15131;DHT22;7666;50.920;4.628;2024-01-25T12:01:31;9.00;99.90
15131;DHT22;7666;50.920;4.628;2024-01-25T12:04:17;9.10;99.90
15131;DHT22;7666;50.920;4.628;2024-01-25T12:07:03;9.10;99.90
15131;DHT22;7666;50.920;4.628;2024-01-25T12:12:45;9.20;99.90
15131;DHT22;7666;50.920;4.628;2024-01-25T12:15:32;9.20;99.90
15131;DHT22;7666;50.920;4.628;2024-01-25T12:18:18;9.30;99.90
15131;DHT22;7666;50.920;4.628;2024-01-25T12:21:05;9.40;99.90
15131;DHT22;7666;50.920;4.628;2024-01-25T12:23:51;9.40;99.90
15131;DHT22;7666;50.920;4.628;2024-01-25T12:26:37;9.40;99.90
15131;DHT22;7666;50.920;4.628;2024-01-25T12:29:23;9.40;99.90
15131;DHT22;7666;50.920;4.628;2024-01-25T12:32:09;9.50;99.90
15131;DHT22;7666;50.920;4.628;2024-01-25T12:35:00;9.40;99.90
15131;DHT22;7666;50.920;4.628;2024-01-25T12:37:46;9.50;99.90
15131;DHT22;7666;50.920;4.628;2024-01-25T12:40:32;9.50;99.90
15131;DHT22;7666;50.920;4.628;2024-01-25T12:43:19;9.50;99.90
15131;DHT22;7666;50.920;4.628;2024-01-25T12:46:07;9.60;99.90
15131;DHT22;7666;50.920;4.628;2024-01-25T12:48:53;9.60;99.90
15131;DHT22;7666;50.920;4.628;2024-01-25T12:51:41;9.60;99.90
15131;DHT22;7666;50.920;4.628;2024-01-25T12:54:27;9.60;99.90
15131;DHT22;7666;50.920;4.628;2024-01-25T12:57:14;9.60;99.90
15131;DHT22;7666;50.920;4.628;2024-01-25T13:00:00;9.60;99.90
15131;DHT22;7666;50.920;4.628;2024-01-25T13:02:46;9.60;99.90
15131;DHT22;7666;50.920;4.628;2024-01-25T13:05:32;9.60;99.90
15131;DHT22;7666;50.920;4.628;2024-01-25T13:08:19;9.60;99.90
15131;DHT22;7666;50.920;4.628;2024-01-25T13:11:05;9.60;99.90
15131;DHT22;7666;50.920;4.628;2024-01-25T13:13:51;9.60;99.90
15131;DHT22;7666;50.920;4.628;2024-01-25T13:16:37;9.60;99.90
15131;DHT22;7666;50.920;4.628;2024-01-25T13:19:23;9.70;99.90
15131;DHT22;7666;50.920;4.628;2024-01-25T13:22:09;9.70;99.90
15131;DHT22;7666;50.920;4.628;2024-01-25T13:24:55;9.70;99.90
15131;DHT22;7666;50.920;4.628;2024-01-25T13:27:41;9.70;99.90
15131;DHT22;7666;50.920;4.628;2024-01-25T13:30:27;9.70;99.90
15131;DHT22;7666;50.920;4.628;2024-01-25T13:33:13;9.80;99.90
15131;DHT22;7666;50.920;4.628;2024-01-25T13:35:59;9.80;99.90
15131;DHT22;7666;50.920;4.628;2024-01-25T13:38:45;9.90;99.90
15131;DHT22;7666;50.920;4.628;2024-01-25T13:41:31;9.90;99.90
15131;DHT22;7666;50.920;4.628;2024-01-25T13:44:17;10.00;99.90
15131;DHT22;7666;50.920;4.628;2024-01-25T13:47:03;10.00;99.90
15131;DHT22;7666;50.920;4.628;2024-01-25T13:49:49;10.00;99.90
15131;DHT22;7666;50.920;4.628;2024-01-25T13:52:35;10.00;99.90
15131;DHT22;7666;50.920;4.628;2024-01-25T13:55:21;10.00;99.90
15131;DHT22;7666;50.920;4.628;2024-01-25T13:58:07;10.10;99.90
15131;DHT22;7666;50.920;4.628;2024-01-25T14:00:53;10.00;99.90
15131;DHT22;7666;50.920;4.628;2024-01-25T14:03:40;10.10;99.90
15131;DHT22;7666;50.920;4.628;2024-01-25T14:06:26;10.10;99.90
15131;DHT22;7666;50.920;4.628;2024-01-25T14:09:12;10.10;99.90
15131;DHT22;7666;50.920;4.628;2024-01-25T14:11:58;10.10;99.90
15131;DHT22;7666;50.920;4.628;2024-01-25T14:14:44;10.10;99.90
15131;DHT22;7666;50.920;4.628;2024-01-25T14:17:29;10.20;99.90
15131;DHT22;7666;50.920;4.628;2024-01-25T14:20:15;10.20;99.90
15131;DHT22;7666;50.920;4.628;2024-01-25T14:23:03;10.20;99.90
15131;DHT22;7666;50.920;4.628;2024-01-25T14:25:49;10.20;99.90
15131;DHT22;7666;50.920;4.628;2024-01-25T14:28:36;10.20;99.90
15131;DHT22;7666;50.920;4.628;2024-01-25T14:31:22;10.30;99.90
15131;DHT22;7666;50.920;4.628;2024-01-25T14:34:08;10.20;99.90
15131;DHT22;7666;50.920;4.628;2024-01-25T14:36:57;10.20;99.90
15131;DHT22;7666;50.920;4.628;2024-01-25T14:39:43;10.20;99.90
15131;DHT22;7666;50.920;4.628;2024-01-25T14:42:29;10.30;99.90
15131;DHT22;7666;50.920;4.628;2024-01-25T14:45:15;10.20;99.90
15131;DHT22;7666;50.920;4.628;2024-01-25T14:48:01;10.20;99.90
15131;DHT22;7666;50.920;4.628;2024-01-25T14:50:47;10.20;99.90
15131;DHT22;7666;50.920;4.628;2024-01-25T14:53:33;10.20;99.90
15131;DHT22;7666;50.920;4.628;2024-01-25T14:56:19;10.20;99.90
15131;DHT22;7666;50.920;4.628;2024-01-25T14:59:05;10.30;99.90
15131;DHT22;7666;50.920;4.628;2024-01-25T15:01:50;10.30;99.90
15131;DHT22;7666;50.920;4.628;2024-01-25T15:04:36;10.30;99.90
15131;DHT22;7666;50.920;4.628;2024-01-25T15:07:22;10.30;99.90
15131;DHT22;7666;50.920;4.628;2024-01-25T15:10:09;10.40;99.90
15131;DHT22;7666;50.920;4.628;2024-01-25T15:12:56;10.40;99.90
15131;DHT22;7666;50.920;4.628;2024-01-25T15:15:44;10.30;99.90
15131;DHT22;7666;50.920;4.628;2024-01-25T15:18:30;10.30;99.90
15131;DHT22;7666;50.920;4.628;2024-01-25T15:21:16;10.30;99.90
15131;DHT22;7666;50.920;4.628;2024-01-25T15:24:03;10.30;99.90
15131;DHT22;7666;50.920;4.628;2024-01-25T15:26:49;10.40;99.90
15131;DHT22;7666;50.920;4.628;2024-01-25T15:29:39;10.30;99.90
15131;DHT22;7666;50.920;4.628;2024-01-25T15:32:25;10.30;99.90
15131;DHT22;7666;50.920;4.628;2024-01-25T15:35:11;10.40;99.90
15131;DHT22;7666;50.920;4.628;2024-01-25T15:37:57;10.40;99.90
15131;DHT22;7666;50.920;4.628;2024-01-25T15:40:43;10.30;99.90
15131;DHT22;7666;50.920;4.628;2024-01-25T15:43:29;10.30;99.90
15131;DHT22;7666;50.920;4.628;2024-01-25T15:46:16;10.30;99.90
15131;DHT22;7666;50.920;4.628;2024-01-25T15:49:03;10.30;99.90
15131;DHT22;7666;50.920;4.628;2024-01-25T15:51:49;10.30;99.90
15131;DHT22;7666;50.920;4.628;2024-01-25T15:54:35;10.30;99.90
15131;DHT22;7666;50.920;4.628;2024-01-25T15:57:21;10.30;99.90
15131;DHT22;7666;50.920;4.628;2024-01-25T16:00:07;10.40;99.90
15131;DHT22;7666;50.920;4.628;2024-01-25T16:02:53;10.40;99.90
15131;DHT22;7666;50.920;4.628;2024-01-25T16:05:42;10.40;99.90
15131;DHT22;7666;50.920;4.628;2024-01-25T16:08:27;10.30;99.90
15131;DHT22;7666;50.920;4.628;2024-01-25T16:11:14;10.30;99.90
15131;DHT22;7666;50.920;4.628;2024-01-25T16:14:00;10.30;99.90
15131;DHT22;7666;50.920;4.628;2024-01-25T16:16:46;10.30;99.90
15131;DHT22;7666;50.920;4.628;2024-01-25T16:19:32;10.30;99.90
15131;DHT22;7666;50.920;4.628;2024-01-25T16:22:18;10.30;99.90
15131;DHT22;7666;50.920;4.628;2024-01-25T16:25:04;10.30;99.90
15131;DHT22;7666;50.920;4.628;2024-01-25T16:27:50;10.30;99.90
15131;DHT22;7666;50.920;4.628;2024-01-25T16:30:36;10.30;99.90
15131;DHT22;7666;50.920;4.628;2024-01-25T16:33:22;10.30;99.90
15131;DHT22;7666;50.920;4.628;2024-01-25T16:36:09;10.30;99.90
15131;DHT22;7666;50.920;4.628;2024-01-25T16:38:55;10.30;99.90
15131;DHT22;7666;50.920;4.628;2024-01-25T16:41:41;10.30;99.90
15131;DHT22;7666;50.920;4.628;2024-01-25T16:44:27;10.30;99.90
15131;DHT22;7666;50.920;4.628;2024-01-25T16:47:13;10.30;99.90
15131;DHT22;7666;50.920;4.628;2024-01-25T16:49:59;10.30;99.90
15131;DHT22;7666;50.920;4.628;2024-01-25T16:52:45;10.20;99.90
15131;DHT22;7666;50.920;4.628;2024-01-25T16:55:32;10.20;99.90
15131;DHT22;7666;50.920;4.628;2024-01-25T16:58:18;10.20;99.90
15131;DHT22;7666;50.920;4.628;2024-01-25T17:01:05;10.20;99.90
15131;DHT22;7666;50.920;4.628;2024-01-25T17:03:51;10.20;99.90
15131;DHT22;7666;50.920;4.628;2024-01-25T17:06:37;10.20;99.90
15131;DHT22;7666;50.920;4.628;2024-01-25T17:09:26;10.20;99.90
15131;DHT22;7666;50.920;4.628;2024-01-25T17:12:12;10.30;99.90
15131;DHT22;7666;50.920;4.628;2024-01-25T17:15:00;10.20;99.90
15131;DHT22;7666;50.920;4.628;2024-01-25T17:17:46;10.20;99.90
15131;DHT22;7666;50.920;4.628;2024-01-25T17:20:32;10.20;99.90
15131;DHT22;7666;50.920;4.628;2024-01-25T17:23:18;10.20;99.90
15131;DHT22;7666;50.920;4.628;2024-01-25T17:26:04;10.20;99.90
15131;DHT22;7666;50.920;4.628;2024-01-25T17:28:51;10.20;99.90
15131;DHT22;7666;50.920;4.628;2024-01-25T17:31:37;10.20;99.90
15131;DHT22;7666;50.920;4.628;2024-01-25T17:34:23;10.20;99.90
15131;DHT22;7666;50.920;4.628;2024-01-25T17:37:09;10.20;99.90
15131;DHT22;7666;50.920;4.628;2024-01-25T17:39:55;10.20;99.90
15131;DHT22;7666;50.920;4.628;2024-01-25T17:42:41;10.20;99.90
15131;DHT22;7666;50.920;4.628;2024-01-25T17:45:27;10.20;99.90
15131;DHT22;7666;50.920;4.628;2024-01-25T17:48:13;10.20;99.90
15131;DHT22;7666;50.920;4.628;2024-01-25T17:50:59;10.20;99.90
15131;DHT22;7666;50.920;4.628;2024-01-25T17:53:44;10.30;99.90
15131;DHT22;7666;50.920;4.628;2024-01-25T17:56:31;10.30;99.90
15131;DHT22;7666;50.920;4.628;2024-01-25T17:59:17;10.30;99.90
15131;DHT22;7666;50.920;4.628;2024-01-25T18:02:03;10.30;99.90
15131;DHT22;7666;50.920;4.628;2024-01-25T18:04:52;10.30;99.90